sensor_id;sensor_type;location;lat;lon;timestamp;pressure;altitude;pressure_sealevel;temperature;humidity
36062;BME280;22123;52.412;20.970;2023-02-19T00:01:16;100123.22;;;1.45;100.00
36062;BME280;22123;52.412;20.970;2023-02-19T00:03:46;100145.16;;;1.59;100.00
36062;BME280;22123;52.412;20.970;2023-02-19T00:06:12;100094.16;;;1.32;100.00
36062;BME280;22123;52.412;20.970;2023-02-19T00:08:38;100103.56;;;1.36;100.00
36062;BME280;22123;52.412;20.970;2023-02-19T00:11:10;100055.47;;;1.18;100.00
36062;BME280;22123;52.412;20.970;2023-02-19T00:13:38;100049.09;;;1.10;100.00
36062;BME280;22123;52.412;20.970;2023-02-19T00:16:30;100056.69;;;1.14;100.00
36062;BME280;22123;52.412;20.970;2023-02-19T00:18:55;100116.91;;;1.58;100.00
36062;BME280;22123;52.412;20.970;2023-02-19T00:21:22;100126.69;;;1.57;100.00
36062;BME280;22123;52.412;20.970;2023-02-19T00:23:50;100003.44;;;0.83;100.00
36062;BME280;22123;52.412;20.970;2023-02-19T00:26:16;99960.56;;;0.56;100.00
36062;BME280;22123;52.412;20.970;2023-02-19T00:28:42;100051.75;;;1.10;100.00
36062;BME280;22123;52.412;20.970;2023-02-19T00:31:15;100086.22;;;1.32;100.00
36062;BME280;22123;52.412;20.970;2023-02-19T00:33:41;100042.22;;;1.07;100.00
36062;BME280;22123;52.412;20.970;2023-02-19T00:36:07;99734.44;;;-0.78;100.00
36062;BME280;22123;52.412;20.970;2023-02-19T00:38:37;99928.91;;;0.43;100.00
36062;BME280;22123;52.412;20.970;2023-02-19T00:41:04;100037.53;;;1.11;100.00
36062;BME280;22123;52.412;20.970;2023-02-19T00:43:30;100090.31;;;1.48;100.00
36062;BME280;22123;52.412;20.970;2023-02-19T00:45:55;100083.31;;;1.47;100.00
36062;BME280;22123;52.412;20.970;2023-02-19T00:48:21;100020.06;;;1.08;100.00
36062;BME280;22123;52.412;20.970;2023-02-19T00:50:47;100064.63;;;1.37;100.00
36062;BME280;22123;52.412;20.970;2023-02-19T00:53:13;100074.28;;;1.38;100.00
36062;BME280;22123;52.412;20.970;2023-02-19T00:55:39;100104.03;;;1.64;100.00
36062;BME280;22123;52.412;20.970;2023-02-19T00:58:05;99960.22;;;0.72;100.00
36062;BME280;22123;52.412;20.970;2023-02-19T01:00:31;100074.84;;;1.42;100.00
36062;BME280;22123;52.412;20.970;2023-02-19T01:02:59;100073.19;;;1.41;100.00
36062;BME280;22123;52.412;20.970;2023-02-19T01:05:24;100013.91;;;1.08;100.00
36062;BME280;22123;52.412;20.970;2023-02-19T01:07:50;100071.25;;;1.43;100.00
36062;BME280;22123;52.412;20.970;2023-02-19T01:10:16;100086.16;;;1.55;100.00
36062;BME280;22123;52.412;20.970;2023-02-19T01:12:42;100050.53;;;1.36;100.00
36062;BME280;22123;52.412;20.970;2023-02-19T01:15:08;100084.50;;;1.54;100.00
36062;BME280;22123;52.412;20.970;2023-02-19T01:17:34;100074.38;;;1.48;100.00
36062;BME280;22123;52.412;20.970;2023-02-19T01:20:00;100001.38;;;1.10;100.00
36062;BME280;22123;52.412;20.970;2023-02-19T01:22:26;100098.34;;;1.69;100.00
36062;BME280;22123;52.412;20.970;2023-02-19T01:24:52;100094.97;;;1.67;100.00
36062;BME280;22123;52.412;20.970;2023-02-19T01:27:18;100074.00;;;1.52;100.00
36062;BME280;22123;52.412;20.970;2023-02-19T01:29:44;100043.78;;;1.32;100.00
36062;BME280;22123;52.412;20.970;2023-02-19T01:32:10;100093.97;;;1.68;100.00
36062;BME280;22123;52.412;20.970;2023-02-19T01:34:35;100008.72;;;1.17;100.00
36062;BME280;22123;52.412;20.970;2023-02-19T01:37:01;100045.81;;;1.40;100.00
36062;BME280;22123;52.412;20.970;2023-02-19T01:39:27;100089.53;;;1.68;100.00
36062;BME280;22123;52.412;20.970;2023-02-19T01:41:53;100097.25;;;1.71;100.00
36062;BME280;22123;52.412;20.970;2023-02-19T01:46:45;100084.25;;;1.57;100.00
36062;BME280;22123;52.412;20.970;2023-02-19T01:49:18;100007.75;;;1.18;100.00
36062;BME280;22123;52.412;20.970;2023-02-19T01:51:55;99965.50;;;0.94;100.00
36062;BME280;22123;52.412;20.970;2023-02-19T01:54:24;100111.94;;;1.87;100.00
36062;BME280;22123;52.412;20.970;2023-02-19T01:56:52;100040.16;;;1.33;100.00
36062;BME280;22123;52.412;20.970;2023-02-19T01:59:19;100008.81;;;1.27;100.00
36062;BME280;22123;52.412;20.970;2023-02-19T02:01:44;100120.00;;;1.85;100.00
36062;BME280;22123;52.412;20.970;2023-02-19T02:04:12;100066.50;;;1.58;100.00
36062;BME280;22123;52.412;20.970;2023-02-19T02:06:44;99992.09;;;1.15;100.00
36062;BME280;22123;52.412;20.970;2023-02-19T02:09:13;100058.09;;;1.41;100.00
36062;BME280;22123;52.412;20.970;2023-02-19T02:11:42;99930.56;;;0.66;100.00
36062;BME280;22123;52.412;20.970;2023-02-19T02:14:10;99986.91;;;1.02;100.00
36062;BME280;22123;52.412;20.970;2023-02-19T02:16:58;100077.97;;;1.58;100.00
36062;BME280;22123;52.412;20.970;2023-02-19T02:19:45;100104.19;;;1.84;100.00
36062;BME280;22123;52.412;20.970;2023-02-19T02:22:20;100095.41;;;1.83;100.00
36062;BME280;22123;52.412;20.970;2023-02-19T02:30:27;100107.97;;;1.81;100.00
36062;BME280;22123;52.412;20.970;2023-02-19T02:35:27;100082.19;;;1.61;100.00
36062;BME280;22123;52.412;20.970;2023-02-19T02:38:01;99994.03;;;1.02;100.00
36062;BME280;22123;52.412;20.970;2023-02-19T02:40:29;100042.69;;;1.35;100.00
36062;BME280;22123;52.412;20.970;2023-02-19T02:42:57;100083.16;;;1.60;100.00
36062;BME280;22123;52.412;20.970;2023-02-19T02:45:31;100079.91;;;1.56;100.00
36062;BME280;22123;52.412;20.970;2023-02-19T02:47:57;100059.69;;;1.44;100.00
36062;BME280;22123;52.412;20.970;2023-02-19T02:50:28;100050.41;;;1.38;100.00
36062;BME280;22123;52.412;20.970;2023-02-19T02:52:59;99965.25;;;0.86;100.00
36062;BME280;22123;52.412;20.970;2023-02-19T02:55:29;100083.50;;;1.55;100.00
36062;BME280;22123;52.412;20.970;2023-02-19T02:57:57;100056.41;;;1.40;100.00
36062;BME280;22123;52.412;20.970;2023-02-19T03:00:24;99998.38;;;1.03;100.00
36062;BME280;22123;52.412;20.970;2023-02-19T03:02:52;100053.88;;;1.38;100.00
36062;BME280;22123;52.412;20.970;2023-02-19T03:05:21;100116.78;;;1.70;100.00
36062;BME280;22123;52.412;20.970;2023-02-19T03:07:53;100106.81;;;1.63;100.00
36062;BME280;22123;52.412;20.970;2023-02-19T03:10:29;100082.59;;;1.33;100.00
36062;BME280;22123;52.412;20.970;2023-02-19T03:12:58;100065.25;;;1.18;100.00
36062;BME280;22123;52.412;20.970;2023-02-19T03:15:31;100100.94;;;1.36;100.00
36062;BME280;22123;52.412;20.970;2023-02-19T03:18:01;100067.19;;;1.04;100.00
36062;BME280;22123;52.412;20.970;2023-02-19T03:20:29;100034.88;;;0.77;100.00
36062;BME280;22123;52.412;20.970;2023-02-19T03:22:58;100051.50;;;0.79;100.00
36062;BME280;22123;52.412;20.970;2023-02-19T03:25:27;100096.81;;;1.10;100.00
36062;BME280;22123;52.412;20.970;2023-02-19T03:27:57;100047.78;;;0.70;100.00
36062;BME280;22123;52.412;20.970;2023-02-19T03:30:30;100071.25;;;0.75;100.00
36062;BME280;22123;52.412;20.970;2023-02-19T03:33:08;100035.78;;;0.42;100.00
36062;BME280;22123;52.412;20.970;2023-02-19T03:35:48;100000.84;;;0.14;100.00
36062;BME280;22123;52.412;20.970;2023-02-19T03:38:25;100115.81;;;0.81;100.00
36062;BME280;22123;52.412;20.970;2023-02-19T03:43:39;100076.66;;;0.62;100.00
36062;BME280;22123;52.412;20.970;2023-02-19T03:46:16;100072.44;;;0.59;100.00
36062;BME280;22123;52.412;20.970;2023-02-19T03:48:57;100034.56;;;0.34;100.00
36062;BME280;22123;52.412;20.970;2023-02-19T03:51:33;100100.13;;;0.66;100.00
36062;BME280;22123;52.412;20.970;2023-02-19T03:56:51;100006.88;;;0.16;100.00
36062;BME280;22123;52.412;20.970;2023-02-19T03:59:42;100083.66;;;0.63;100.00
36062;BME280;22123;52.412;20.970;2023-02-19T04:02:22;100030.22;;;0.22;100.00
36062;BME280;22123;52.412;20.970;2023-02-19T04:05:03;99884.63;;;-0.72;100.00
36062;BME280;22123;52.412;20.970;2023-02-19T04:07:34;99941.63;;;-0.32;100.00
36062;BME280;22123;52.412;20.970;2023-02-19T04:10:02;100019.25;;;0.15;100.00
36062;BME280;22123;52.412;20.970;2023-02-19T04:12:29;100001.66;;;0.03;100.00
36062;BME280;22123;52.412;20.970;2023-02-19T04:15:02;100076.72;;;0.38;100.00
36062;BME280;22123;52.412;20.970;2023-02-19T04:17:36;100069.63;;;0.38;100.00
36062;BME280;22123;52.412;20.970;2023-02-19T04:20:06;100039.59;;;0.15;100.00
36062;BME280;22123;52.412;20.970;2023-02-19T04:22:34;100081.91;;;0.39;100.00
36062;BME280;22123;52.412;20.970;2023-02-19T04:25:01;100080.22;;;0.38;100.00
36062;BME280;22123;52.412;20.970;2023-02-19T04:27:27;99964.00;;;-0.36;100.00
36062;BME280;22123;52.412;20.970;2023-02-19T04:29:53;100074.41;;;0.33;100.00
36062;BME280;22123;52.412;20.970;2023-02-19T04:32:19;99994.59;;;-0.21;100.00
36062;BME280;22123;52.412;20.970;2023-02-19T04:34:45;100021.97;;;0.03;100.00
36062;BME280;22123;52.412;20.970;2023-02-19T04:37:11;99994.97;;;-0.14;100.00
36062;BME280;22123;52.412;20.970;2023-02-19T04:39:37;100012.91;;;-0.06;100.00
36062;BME280;22123;52.412;20.970;2023-02-19T04:42:03;100020.19;;;0.03;100.00
36062;BME280;22123;52.412;20.970;2023-02-19T04:44:29;99982.22;;;-0.20;100.00
36062;BME280;22123;52.412;20.970;2023-02-19T04:46:55;99928.09;;;-0.51;100.00
36062;BME280;22123;52.412;20.970;2023-02-19T04:49:21;99937.84;;;-0.52;100.00
36062;BME280;22123;52.412;20.970;2023-02-19T04:51:46;100070.66;;;0.24;100.00
36062;BME280;22123;52.412;20.970;2023-02-19T04:54:12;99941.78;;;-0.58;100.00
36062;BME280;22123;52.412;20.970;2023-02-19T04:56:38;99995.88;;;-0.26;100.00
36062;BME280;22123;52.412;20.970;2023-02-19T04:59:04;100025.78;;;-0.13;100.00
36062;BME280;22123;52.412;20.970;2023-02-19T05:01:30;99990.00;;;-0.30;100.00
36062;BME280;22123;52.412;20.970;2023-02-19T05:03:56;99900.22;;;-0.80;100.00
36062;BME280;22123;52.412;20.970;2023-02-19T05:06:22;99861.19;;;-1.00;100.00
36062;BME280;22123;52.412;20.970;2023-02-19T05:08:48;100001.16;;;-0.26;100.00
36062;BME280;22123;52.412;20.970;2023-02-19T05:11:14;100000.00;;;-0.22;100.00
36062;BME280;22123;52.412;20.970;2023-02-19T05:13:39;100058.59;;;0.20;100.00
36062;BME280;22123;52.412;20.970;2023-02-19T05:16:09;99986.75;;;-0.22;100.00
36062;BME280;22123;52.412;20.970;2023-02-19T05:18:35;99850.16;;;-1.06;100.00
36062;BME280;22123;52.412;20.970;2023-02-19T05:21:01;99940.63;;;-0.54;100.00
36062;BME280;22123;52.412;20.970;2023-02-19T05:23:27;100067.19;;;0.24;100.00
36062;BME280;22123;52.412;20.970;2023-02-19T05:25:53;99915.28;;;-0.69;100.00
36062;BME280;22123;52.412;20.970;2023-02-19T05:28:19;100046.31;;;0.08;100.00
36062;BME280;22123;52.412;20.970;2023-02-19T05:30:50;100061.25;;;0.20;100.00
36062;BME280;22123;52.412;20.970;2023-02-19T05:33:18;100060.06;;;0.24;100.00
36062;BME280;22123;52.412;20.970;2023-02-19T05:35:47;100061.00;;;0.23;100.00
36062;BME280;22123;52.412;20.970;2023-02-19T05:38:14;100057.41;;;0.24;100.00
36062;BME280;22123;52.412;20.970;2023-02-19T05:40:40;100064.41;;;0.25;100.00
36062;BME280;22123;52.412;20.970;2023-02-19T05:43:06;100017.78;;;0.00;100.00
36062;BME280;22123;52.412;20.970;2023-02-19T05:45:33;100052.63;;;0.29;100.00
36062;BME280;22123;52.412;20.970;2023-02-19T05:47:59;100044.69;;;0.29;100.00
36062;BME280;22123;52.412;20.970;2023-02-19T05:50:25;100047.34;;;0.29;100.00
36062;BME280;22123;52.412;20.970;2023-02-19T05:52:51;100024.06;;;0.10;100.00
36062;BME280;22123;52.412;20.970;2023-02-19T05:55:18;99851.88;;;-0.93;100.00
36062;BME280;22123;52.412;20.970;2023-02-19T05:57:45;100011.03;;;0.07;100.00
36062;BME280;22123;52.412;20.970;2023-02-19T06:00:15;100015.50;;;0.07;100.00
36062;BME280;22123;52.412;20.970;2023-02-19T06:02:42;100059.16;;;0.37;100.00
36062;BME280;22123;52.412;20.970;2023-02-19T06:05:08;100026.72;;;0.10;100.00
36062;BME280;22123;52.412;20.970;2023-02-19T06:07:35;100013.22;;;0.13;100.00
36062;BME280;22123;52.412;20.970;2023-02-19T06:10:01;99969.00;;;-0.09;100.00
36062;BME280;22123;52.412;20.970;2023-02-19T06:12:27;99951.81;;;-0.14;100.00
36062;BME280;22123;52.412;20.970;2023-02-19T06:14:53;99808.06;;;-1.09;100.00
36062;BME280;22123;52.412;20.970;2023-02-19T06:17:19;100008.66;;;0.15;100.00
36062;BME280;22123;52.412;20.970;2023-02-19T06:19:46;100016.59;;;0.15;100.00
36062;BME280;22123;52.412;20.970;2023-02-19T06:22:13;100047.13;;;0.44;100.00
36062;BME280;22123;52.412;20.970;2023-02-19T06:24:39;100000.56;;;0.06;100.00
36062;BME280;22123;52.412;20.970;2023-02-19T06:27:06;100014.06;;;0.14;100.00
36062;BME280;22123;52.412;20.970;2023-02-19T06:29:32;100056.63;;;0.46;100.00
36062;BME280;22123;52.412;20.970;2023-02-19T06:31:59;99999.66;;;0.18;100.00
36062;BME280;22123;52.412;20.970;2023-02-19T06:34:25;100069.31;;;0.54;100.00
36062;BME280;22123;52.412;20.970;2023-02-19T06:36:51;100054.00;;;0.58;100.00
36062;BME280;22123;52.412;20.970;2023-02-19T06:39:17;100043.28;;;0.48;100.00
36062;BME280;22123;52.412;20.970;2023-02-19T06:41:43;99992.69;;;0.28;100.00
36062;BME280;22123;52.412;20.970;2023-02-19T06:44:09;99963.78;;;0.14;100.00
36062;BME280;22123;52.412;20.970;2023-02-19T06:46:35;99991.50;;;0.32;100.00
36062;BME280;22123;52.412;20.970;2023-02-19T06:49:03;99984.03;;;0.26;100.00
36062;BME280;22123;52.412;20.970;2023-02-19T06:51:29;100055.47;;;0.73;100.00
36062;BME280;22123;52.412;20.970;2023-02-19T06:53:55;100059.44;;;0.67;100.00
36062;BME280;22123;52.412;20.970;2023-02-19T06:58:48;99999.22;;;0.47;100.00
36062;BME280;22123;52.412;20.970;2023-02-19T07:01:14;99986.22;;;0.44;100.00
36062;BME280;22123;52.412;20.970;2023-02-19T07:03:39;99970.44;;;0.31;100.00
36062;BME280;22123;52.412;20.970;2023-02-19T07:06:05;99931.97;;;0.03;100.00
36062;BME280;22123;52.412;20.970;2023-02-19T07:08:31;99988.25;;;0.40;100.00
36062;BME280;22123;52.412;20.970;2023-02-19T07:10:58;100074.88;;;0.96;100.00
36062;BME280;22123;52.412;20.970;2023-02-19T07:13:24;100078.63;;;1.05;100.00
36062;BME280;22123;52.412;20.970;2023-02-19T07:15:56;100051.03;;;0.85;100.00
36062;BME280;22123;52.412;20.970;2023-02-19T07:18:23;99951.75;;;0.21;100.00
36062;BME280;22123;52.412;20.970;2023-02-19T07:20:48;100009.34;;;0.64;100.00
36062;BME280;22123;52.412;20.970;2023-02-19T07:23:14;100083.81;;;1.18;100.00
36062;BME280;22123;52.412;20.970;2023-02-19T07:25:40;100043.91;;;0.97;100.00
36062;BME280;22123;52.412;20.970;2023-02-19T07:28:06;100047.44;;;1.09;100.00
36062;BME280;22123;52.412;20.970;2023-02-19T07:30:32;100059.44;;;1.24;100.00
36062;BME280;22123;52.412;20.970;2023-02-19T07:32:58;99909.41;;;0.32;100.00
36062;BME280;22123;52.412;20.970;2023-02-19T07:35:26;100068.34;;;1.34;100.00
36062;BME280;22123;52.412;20.970;2023-02-19T07:37:51;99864.03;;;0.03;100.00
36062;BME280;22123;52.412;20.970;2023-02-19T07:40:17;99882.31;;;0.29;100.00
36062;BME280;22123;52.412;20.970;2023-02-19T07:42:43;100063.53;;;1.39;100.00
36062;BME280;22123;52.412;20.970;2023-02-19T07:45:09;100057.59;;;1.47;100.00
36062;BME280;22123;52.412;20.970;2023-02-19T07:47:35;100020.75;;;1.21;100.00
36062;BME280;22123;52.412;20.970;2023-02-19T07:50:01;100098.09;;;1.72;100.00
36062;BME280;22123;52.412;20.970;2023-02-19T07:52:27;100069.53;;;1.53;100.00
36062;BME280;22123;52.412;20.970;2023-02-19T07:54:53;100066.38;;;1.59;100.00
36062;BME280;22123;52.412;20.970;2023-02-19T07:57:19;100039.41;;;1.43;100.00
36062;BME280;22123;52.412;20.970;2023-02-19T07:59:44;99919.84;;;0.68;100.00
36062;BME280;22123;52.412;20.970;2023-02-19T08:02:15;100095.88;;;1.88;100.00
36062;BME280;22123;52.412;20.970;2023-02-19T08:04:41;100046.19;;;1.35;100.00
36062;BME280;22123;52.412;20.970;2023-02-19T08:07:08;100100.91;;;2.03;100.00
36062;BME280;22123;52.412;20.970;2023-02-19T08:09:34;99716.22;;;-0.36;100.00
36062;BME280;22123;52.412;20.970;2023-02-19T08:12:00;99971.28;;;1.43;100.00
36062;BME280;22123;52.412;20.970;2023-02-19T08:14:28;100091.53;;;2.20;100.00
36062;BME280;22123;52.412;20.970;2023-02-19T08:16:54;100103.41;;;2.37;100.00
36062;BME280;22123;52.412;20.970;2023-02-19T08:19:20;100043.84;;;1.97;100.00
36062;BME280;22123;52.412;20.970;2023-02-19T08:21:46;100114.13;;;2.47;100.00
36062;BME280;22123;52.412;20.970;2023-02-19T08:24:12;100034.16;;;2.07;100.00
36062;BME280;22123;52.412;20.970;2023-02-19T08:26:38;99971.69;;;1.71;100.00
36062;BME280;22123;52.412;20.970;2023-02-19T08:29:04;100117.81;;;2.76;100.00
36062;BME280;22123;52.412;20.970;2023-02-19T08:31:31;100040.88;;;2.33;100.00
36062;BME280;22123;52.412;20.970;2023-02-19T08:33:58;100025.97;;;2.41;100.00
36062;BME280;22123;52.412;20.970;2023-02-19T08:36:24;100044.63;;;2.51;100.00
36062;BME280;22123;52.412;20.970;2023-02-19T08:38:49;100125.91;;;2.96;100.00
36062;BME280;22123;52.412;20.970;2023-02-19T08:41:15;100023.59;;;2.38;100.00
36062;BME280;22123;52.412;20.970;2023-02-19T08:43:42;100070.34;;;2.72;100.00
36062;BME280;22123;52.412;20.970;2023-02-19T08:46:09;100132.75;;;3.20;100.00
36062;BME280;22123;52.412;20.970;2023-02-19T08:48:36;100121.53;;;3.16;100.00
36062;BME280;22123;52.412;20.970;2023-02-19T08:51:06;99954.47;;;2.07;100.00
36062;BME280;22123;52.412;20.970;2023-02-19T08:53:34;100136.41;;;3.19;100.00
36062;BME280;22123;52.412;20.970;2023-02-19T08:56:05;100134.84;;;3.16;100.00
36062;BME280;22123;52.412;20.970;2023-02-19T08:58:31;100050.16;;;2.59;100.00
36062;BME280;22123;52.412;20.970;2023-02-19T09:00:57;100011.59;;;2.44;100.00
36062;BME280;22123;52.412;20.970;2023-02-19T09:03:23;100133.47;;;3.22;100.00
36062;BME280;22123;52.412;20.970;2023-02-19T09:05:49;100105.44;;;3.18;100.00
36062;BME280;22123;52.412;20.970;2023-02-19T09:08:15;100130.38;;;3.57;100.00
36062;BME280;22123;52.412;20.970;2023-02-19T09:10:41;100129.44;;;3.68;100.00
36062;BME280;22123;52.412;20.970;2023-02-19T09:13:07;100038.91;;;3.08;100.00
36062;BME280;22123;52.412;20.970;2023-02-19T09:15:32;100095.75;;;3.47;100.00
36062;BME280;22123;52.412;20.970;2023-02-19T09:17:59;100136.44;;;3.69;100.00
36062;BME280;22123;52.412;20.970;2023-02-19T09:20:25;100022.88;;;2.88;100.00
36062;BME280;22123;52.412;20.970;2023-02-19T09:22:55;100093.34;;;3.35;100.00
36062;BME280;22123;52.412;20.970;2023-02-19T09:25:21;100058.34;;;3.08;100.00
36062;BME280;22123;52.412;20.970;2023-02-19T09:27:47;100051.78;;;3.12;100.00
36062;BME280;22123;52.412;20.970;2023-02-19T09:30:13;99979.16;;;2.71;100.00
36062;BME280;22123;52.412;20.970;2023-02-19T09:32:39;100105.22;;;3.71;100.00
36062;BME280;22123;52.412;20.970;2023-02-19T09:35:05;100121.81;;;4.04;100.00
36062;BME280;22123;52.412;20.970;2023-02-19T09:37:31;100020.00;;;3.61;100.00
36062;BME280;22123;52.412;20.970;2023-02-19T09:39:57;100087.47;;;4.21;100.00
36062;BME280;22123;52.412;20.970;2023-02-19T09:42:25;100050.56;;;4.06;100.00
36062;BME280;22123;52.412;20.970;2023-02-19T09:44:54;100082.38;;;4.37;100.00
36062;BME280;22123;52.412;20.970;2023-02-19T09:47:31;100015.13;;;3.96;100.00
36062;BME280;22123;52.412;20.970;2023-02-19T09:50:04;100046.38;;;4.23;100.00
36062;BME280;22123;52.412;20.970;2023-02-19T09:52:31;100130.91;;;4.70;100.00
36062;BME280;22123;52.412;20.970;2023-02-19T09:55:17;100142.72;;;4.58;100.00
36062;BME280;22123;52.412;20.970;2023-02-19T09:57:47;100087.19;;;4.04;100.00
36062;BME280;22123;52.412;20.970;2023-02-19T10:02:51;100119.25;;;3.83;100.00
36062;BME280;22123;52.412;20.970;2023-02-19T10:05:17;100098.06;;;3.72;100.00
36062;BME280;22123;52.412;20.970;2023-02-19T10:07:45;100149.25;;;3.95;100.00
36062;BME280;22123;52.412;20.970;2023-02-19T10:12:41;100150.78;;;3.88;100.00
36062;BME280;22123;52.412;20.970;2023-02-19T10:15:33;100152.06;;;3.93;100.00
36062;BME280;22123;52.412;20.970;2023-02-19T10:18:02;100039.84;;;3.47;100.00
36062;BME280;22123;52.412;20.970;2023-02-19T10:20:28;100112.69;;;4.16;100.00
36062;BME280;22123;52.412;20.970;2023-02-19T10:23:04;100022.66;;;3.71;100.00
36062;BME280;22123;52.412;20.970;2023-02-19T10:25:32;100092.50;;;4.24;100.00
36062;BME280;22123;52.412;20.970;2023-02-19T10:28:00;100154.91;;;4.60;100.00
36062;BME280;22123;52.412;20.970;2023-02-19T10:30:32;100106.25;;;4.29;100.00
36062;BME280;22123;52.412;20.970;2023-02-19T10:33:10;100140.19;;;4.56;100.00
36062;BME280;22123;52.412;20.970;2023-02-19T10:35:54;100115.50;;;4.44;100.00
36062;BME280;22123;52.412;20.970;2023-02-19T10:38:27;100102.03;;;4.46;100.00
36062;BME280;22123;52.412;20.970;2023-02-19T10:41:12;100155.59;;;4.92;100.00
36062;BME280;22123;52.412;20.970;2023-02-19T10:43:41;100111.38;;;4.79;100.00
36062;BME280;22123;52.412;20.970;2023-02-19T10:46:19;100057.84;;;4.43;100.00
36062;BME280;22123;52.412;20.970;2023-02-19T10:48:52;100169.88;;;5.10;100.00
36062;BME280;22123;52.412;20.970;2023-02-19T10:51:18;100081.97;;;4.51;100.00
36062;BME280;22123;52.412;20.970;2023-02-19T10:53:49;100158.81;;;4.95;100.00
36062;BME280;22123;52.412;20.970;2023-02-19T10:56:24;100164.31;;;4.84;100.00
36062;BME280;22123;52.412;20.970;2023-02-19T10:58:51;99988.63;;;3.55;100.00
36062;BME280;22123;52.412;20.970;2023-02-19T11:01:24;100167.28;;;4.51;100.00
36062;BME280;22123;52.412;20.970;2023-02-19T11:06:44;100080.00;;;3.85;100.00
36062;BME280;22123;52.412;20.970;2023-02-19T11:09:32;100171.34;;;4.36;100.00
36062;BME280;22123;52.412;20.970;2023-02-19T11:12:01;100069.03;;;3.69;100.00
36062;BME280;22123;52.412;20.970;2023-02-19T11:14:28;100112.69;;;4.07;100.00
36062;BME280;22123;52.412;20.970;2023-02-19T11:16:57;100169.09;;;4.61;100.00
36062;BME280;22123;52.412;20.970;2023-02-19T11:19:39;100163.59;;;4.72;100.00
36062;BME280;22123;52.412;20.970;2023-02-19T11:22:29;100147.34;;;4.56;100.00
36062;BME280;22123;52.412;20.970;2023-02-19T11:25:04;100107.81;;;4.22;100.00
36062;BME280;22123;52.412;20.970;2023-02-19T11:27:31;100162.22;;;4.68;100.00
36062;BME280;22123;52.412;20.970;2023-02-19T11:35:42;100104.06;;;5.66;100.00
36062;BME280;22123;52.412;20.970;2023-02-19T11:38:13;100128.56;;;6.07;100.00
36062;BME280;22123;52.412;20.970;2023-02-19T11:46:07;100165.31;;;6.41;100.00
36062;BME280;22123;52.412;20.970;2023-02-19T11:52:11;100179.97;;;5.91;100.00
36062;BME280;22123;52.412;20.970;2023-02-19T11:54:51;100049.16;;;4.98;100.00
36062;BME280;22123;52.412;20.970;2023-02-19T12:00:16;100187.22;;;5.34;100.00
36062;BME280;22123;52.412;20.970;2023-02-19T12:17:08;100177.09;;;7.72;100.00
36062;BME280;22123;52.412;20.970;2023-02-19T12:22:05;100183.16;;;8.25;100.00
36062;BME280;22123;52.412;20.970;2023-02-19T12:45:55;100178.28;;;7.77;100.00
36062;BME280;22123;52.412;20.970;2023-02-19T12:50:55;100211.25;;;7.70;100.00
36062;BME280;22123;52.412;20.970;2023-02-19T12:53:37;100207.56;;;7.10;100.00
36062;BME280;22123;52.412;20.970;2023-02-19T12:56:11;100217.44;;;6.73;100.00
36062;BME280;22123;52.412;20.970;2023-02-19T12:58:45;100222.03;;;6.63;100.00
36062;BME280;22123;52.412;20.970;2023-02-19T13:01:18;100179.91;;;6.29;100.00
36062;BME280;22123;52.412;20.970;2023-02-19T13:04:05;100227.44;;;6.35;100.00
36062;BME280;22123;52.412;20.970;2023-02-19T13:06:41;100139.50;;;5.58;100.00
36062;BME280;22123;52.412;20.970;2023-02-19T13:09:16;100175.78;;;5.51;100.00
36062;BME280;22123;52.412;20.970;2023-02-19T13:11:48;100221.56;;;5.66;100.00
36062;BME280;22123;52.412;20.970;2023-02-19T13:14:42;100227.69;;;5.39;100.00
36062;BME280;22123;52.412;20.970;2023-02-19T13:17:18;100133.47;;;4.52;100.00
36062;BME280;22123;52.412;20.970;2023-02-19T13:19:47;100238.72;;;4.97;100.00
36062;BME280;22123;52.412;20.970;2023-02-19T13:22:35;100230.56;;;4.88;100.00
36062;BME280;22123;52.412;20.970;2023-02-19T13:25:04;100123.50;;;4.15;100.00
36062;BME280;22123;52.412;20.970;2023-02-19T13:27:57;100054.19;;;3.66;100.00
36062;BME280;22123;52.412;20.970;2023-02-19T13:30:53;100244.72;;;4.79;100.00
36062;BME280;22123;52.412;20.970;2023-02-19T13:33:36;100196.84;;;4.39;100.00
36062;BME280;22123;52.412;20.970;2023-02-19T13:36:17;100225.06;;;4.41;100.00
36062;BME280;22123;52.412;20.970;2023-02-19T13:38:47;100226.75;;;4.32;100.00
36062;BME280;22123;52.412;20.970;2023-02-19T13:41:26;100221.94;;;4.16;100.00
36062;BME280;22123;52.412;20.970;2023-02-19T13:43:58;100248.59;;;4.16;100.00
36062;BME280;22123;52.412;20.970;2023-02-19T13:46:32;100253.31;;;4.03;100.00
36062;BME280;22123;52.412;20.970;2023-02-19T13:52:18;100201.28;;;3.58;100.00
36062;BME280;22123;52.412;20.970;2023-02-19T13:54:42;100262.06;;;3.84;100.00
36062;BME280;22123;52.412;20.970;2023-02-19T13:59:46;100260.53;;;3.81;100.00
36062;BME280;22123;52.412;20.970;2023-02-19T14:02:25;100286.53;;;3.99;100.00
36062;BME280;22123;52.412;20.970;2023-02-19T14:04:54;100203.19;;;3.46;100.00
36062;BME280;22123;52.412;20.970;2023-02-19T14:07:33;100151.50;;;3.18;100.00
36062;BME280;22123;52.412;20.970;2023-02-19T14:10:00;100249.53;;;3.75;100.00
36062;BME280;22123;52.412;20.970;2023-02-19T14:12:34;100081.25;;;2.69;100.00
36062;BME280;22123;52.412;20.970;2023-02-19T14:18:42;100316.63;;;3.90;100.00
36062;BME280;22123;52.412;20.970;2023-02-19T14:21:23;100314.88;;;3.79;100.00
36062;BME280;22123;52.412;20.970;2023-02-19T14:23:51;100323.41;;;3.73;100.00
36062;BME280;22123;52.412;20.970;2023-02-19T14:26:19;100243.66;;;3.19;100.00